sensor_id;sensor_type;location;lat;lon;timestamp;temperature;humidity
39045;DHT22;52192;52.002;5.956;2023-05-21T00:00:49;17.40;61.10
39045;DHT22;52192;52.002;5.956;2023-05-21T00:03:16;17.40;61.10
39045;DHT22;52192;52.002;5.956;2023-05-21T00:05:42;17.40;61.10
39045;DHT22;52192;52.002;5.956;2023-05-21T00:08:11;17.40;61.20
39045;DHT22;52192;52.002;5.956;2023-05-21T00:10:37;17.40;61.40
39045;DHT22;52192;52.002;5.956;2023-05-21T00:13:02;17.40;61.40
39045;DHT22;52192;52.002;5.956;2023-05-21T00:15:28;17.40;61.50
39045;DHT22;52192;52.002;5.956;2023-05-21T00:17:54;17.40;61.50
39045;DHT22;52192;52.002;5.956;2023-05-21T00:20:19;17.40;61.60
39045;DHT22;52192;52.002;5.956;2023-05-21T00:22:46;17.50;61.60
39045;DHT22;52192;52.002;5.956;2023-05-21T00:25:12;17.50;61.70
39045;DHT22;52192;52.002;5.956;2023-05-21T00:27:38;17.40;61.80
39045;DHT22;52192;52.002;5.956;2023-05-21T00:30:04;17.40;61.80
39045;DHT22;52192;52.002;5.956;2023-05-21T00:32:30;17.40;61.90
39045;DHT22;52192;52.002;5.956;2023-05-21T00:34:55;17.40;61.90
39045;DHT22;52192;52.002;5.956;2023-05-21T00:37:22;17.40;61.90
39045;DHT22;52192;52.002;5.956;2023-05-21T00:39:49;17.40;61.90
39045;DHT22;52192;52.002;5.956;2023-05-21T00:42:16;17.40;61.90
39045;DHT22;52192;52.002;5.956;2023-05-21T00:44:43;17.40;62.10
39045;DHT22;52192;52.002;5.956;2023-05-21T00:47:10;17.40;62.20
39045;DHT22;52192;52.002;5.956;2023-05-21T00:49:36;17.40;62.30
39045;DHT22;52192;52.002;5.956;2023-05-21T00:52:02;17.40;62.40
39045;DHT22;52192;52.002;5.956;2023-05-21T00:54:29;17.40;62.60
39045;DHT22;52192;52.002;5.956;2023-05-21T00:56:55;17.40;62.60
39045;DHT22;52192;52.002;5.956;2023-05-21T00:59:21;17.30;62.60
39045;DHT22;52192;52.002;5.956;2023-05-21T01:01:48;17.40;62.70
39045;DHT22;52192;52.002;5.956;2023-05-21T01:04:21;17.40;62.70
39045;DHT22;52192;52.002;5.956;2023-05-21T01:06:47;17.30;62.80
39045;DHT22;52192;52.002;5.956;2023-05-21T01:09:12;17.30;63.00
39045;DHT22;52192;52.002;5.956;2023-05-21T01:11:41;17.30;63.00
39045;DHT22;52192;52.002;5.956;2023-05-21T01:14:10;17.30;63.00
39045;DHT22;52192;52.002;5.956;2023-05-21T01:16:43;17.30;63.00
39045;DHT22;52192;52.002;5.956;2023-05-21T01:19:19;17.30;63.00
39045;DHT22;52192;52.002;5.956;2023-05-21T01:21:51;17.30;63.20
39045;DHT22;52192;52.002;5.956;2023-05-21T01:24:17;17.30;63.20
39045;DHT22;52192;52.002;5.956;2023-05-21T01:26:43;17.30;63.20
39045;DHT22;52192;52.002;5.956;2023-05-21T01:29:11;17.30;63.40
39045;DHT22;52192;52.002;5.956;2023-05-21T01:34:33;17.30;63.50
39045;DHT22;52192;52.002;5.956;2023-05-21T01:37:46;17.20;63.50
39045;DHT22;52192;52.002;5.956;2023-05-21T01:40:10;17.20;63.60
39045;DHT22;52192;52.002;5.956;2023-05-21T01:42:41;17.20;63.80
39045;DHT22;52192;52.002;5.956;2023-05-21T01:45:08;17.20;63.80
39045;DHT22;52192;52.002;5.956;2023-05-21T01:47:35;17.20;63.90
39045;DHT22;52192;52.002;5.956;2023-05-21T01:50:03;17.20;63.80
39045;DHT22;52192;52.002;5.956;2023-05-21T01:52:29;17.30;63.90
39045;DHT22;52192;52.002;5.956;2023-05-21T01:54:58;17.30;63.70
39045;DHT22;52192;52.002;5.956;2023-05-21T01:57:24;17.30;63.80
39045;DHT22;52192;52.002;5.956;2023-05-21T01:59:51;17.20;63.90
39045;DHT22;52192;52.002;5.956;2023-05-21T02:02:18;17.20;64.10
39045;DHT22;52192;52.002;5.956;2023-05-21T02:04:43;17.10;64.10
39045;DHT22;52192;52.002;5.956;2023-05-21T02:07:10;17.10;64.30
39045;DHT22;52192;52.002;5.956;2023-05-21T02:09:39;17.10;64.50
39045;DHT22;52192;52.002;5.956;2023-05-21T02:12:05;17.10;64.60
39045;DHT22;52192;52.002;5.956;2023-05-21T02:14:31;17.00;64.50
39045;DHT22;52192;52.002;5.956;2023-05-21T02:16:58;17.00;64.60
39045;DHT22;52192;52.002;5.956;2023-05-21T02:19:25;17.00;64.60
39045;DHT22;52192;52.002;5.956;2023-05-21T02:21:51;17.00;64.70
39045;DHT22;52192;52.002;5.956;2023-05-21T02:24:20;17.00;65.10
39045;DHT22;52192;52.002;5.956;2023-05-21T02:26:46;17.00;65.00
39045;DHT22;52192;52.002;5.956;2023-05-21T02:29:14;17.00;65.00
39045;DHT22;52192;52.002;5.956;2023-05-21T02:31:39;17.00;65.10
39045;DHT22;52192;52.002;5.956;2023-05-21T02:34:05;17.00;65.10
39045;DHT22;52192;52.002;5.956;2023-05-21T02:36:32;16.90;65.00
39045;DHT22;52192;52.002;5.956;2023-05-21T02:38:58;16.90;65.20
39045;DHT22;52192;52.002;5.956;2023-05-21T02:41:23;16.90;65.40
39045;DHT22;52192;52.002;5.956;2023-05-21T02:43:49;16.90;65.60
39045;DHT22;52192;52.002;5.956;2023-05-21T02:46:14;16.80;65.60
39045;DHT22;52192;52.002;5.956;2023-05-21T02:48:40;16.80;65.60
39045;DHT22;52192;52.002;5.956;2023-05-21T02:51:06;16.80;65.80
39045;DHT22;52192;52.002;5.956;2023-05-21T02:53:31;16.80;65.90
39045;DHT22;52192;52.002;5.956;2023-05-21T02:55:57;16.70;65.90
39045;DHT22;52192;52.002;5.956;2023-05-21T02:58:23;16.70;65.90
39045;DHT22;52192;52.002;5.956;2023-05-21T03:00:50;16.70;66.00
39045;DHT22;52192;52.002;5.956;2023-05-21T03:03:15;16.70;66.00
39045;DHT22;52192;52.002;5.956;2023-05-21T03:05:41;16.70;66.20
39045;DHT22;52192;52.002;5.956;2023-05-21T03:08:07;16.60;66.10
39045;DHT22;52192;52.002;5.956;2023-05-21T03:10:32;16.60;66.40
39045;DHT22;52192;52.002;5.956;2023-05-21T03:12:58;16.60;66.40
39045;DHT22;52192;52.002;5.956;2023-05-21T03:15:23;16.60;66.40
39045;DHT22;52192;52.002;5.956;2023-05-21T03:17:50;16.60;66.50
39045;DHT22;52192;52.002;5.956;2023-05-21T03:20:18;16.60;66.40
39045;DHT22;52192;52.002;5.956;2023-05-21T03:22:44;16.60;66.40
39045;DHT22;52192;52.002;5.956;2023-05-21T03:25:11;16.70;66.50
39045;DHT22;52192;52.002;5.956;2023-05-21T03:27:37;16.70;66.50
39045;DHT22;52192;52.002;5.956;2023-05-21T03:30:04;16.70;66.50
39045;DHT22;52192;52.002;5.956;2023-05-21T03:32:30;16.70;66.60
39045;DHT22;52192;52.002;5.956;2023-05-21T03:34:58;16.70;66.70
39045;DHT22;52192;52.002;5.956;2023-05-21T03:37:23;16.70;66.60
39045;DHT22;52192;52.002;5.956;2023-05-21T03:39:50;16.70;66.70
39045;DHT22;52192;52.002;5.956;2023-05-21T03:42:15;16.70;66.90
39045;DHT22;52192;52.002;5.956;2023-05-21T03:44:41;16.70;66.90
39045;DHT22;52192;52.002;5.956;2023-05-21T03:47:06;16.70;67.00
39045;DHT22;52192;52.002;5.956;2023-05-21T03:49:32;16.70;67.00
39045;DHT22;52192;52.002;5.956;2023-05-21T03:51:58;16.60;67.10
39045;DHT22;52192;52.002;5.956;2023-05-21T03:54:23;16.60;67.20
39045;DHT22;52192;52.002;5.956;2023-05-21T03:56:49;16.60;67.30
39045;DHT22;52192;52.002;5.956;2023-05-21T03:59:15;16.60;67.50
39045;DHT22;52192;52.002;5.956;2023-05-21T04:01:40;16.60;67.50
39045;DHT22;52192;52.002;5.956;2023-05-21T04:04:07;16.60;67.50
39045;DHT22;52192;52.002;5.956;2023-05-21T04:06:33;16.60;67.50
39045;DHT22;52192;52.002;5.956;2023-05-21T04:08:59;16.60;67.70
39045;DHT22;52192;52.002;5.956;2023-05-21T04:11:25;16.60;67.70
39045;DHT22;52192;52.002;5.956;2023-05-21T04:13:51;16.60;67.70
39045;DHT22;52192;52.002;5.956;2023-05-21T04:16:17;16.50;67.80
39045;DHT22;52192;52.002;5.956;2023-05-21T04:18:43;16.50;67.80
39045;DHT22;52192;52.002;5.956;2023-05-21T04:21:10;16.50;67.90
39045;DHT22;52192;52.002;5.956;2023-05-21T04:23:35;16.50;67.90
39045;DHT22;52192;52.002;5.956;2023-05-21T04:26:02;16.60;67.90
39045;DHT22;52192;52.002;5.956;2023-05-21T04:28:29;16.60;67.90
39045;DHT22;52192;52.002;5.956;2023-05-21T04:30:55;16.60;68.20
39045;DHT22;52192;52.002;5.956;2023-05-21T04:33:21;16.60;68.20
39045;DHT22;52192;52.002;5.956;2023-05-21T04:35:49;16.60;68.20
39045;DHT22;52192;52.002;5.956;2023-05-21T04:38:15;16.70;68.20
39045;DHT22;52192;52.002;5.956;2023-05-21T04:40:48;16.70;68.30
39045;DHT22;52192;52.002;5.956;2023-05-21T04:43:18;16.70;68.20
39045;DHT22;52192;52.002;5.956;2023-05-21T04:45:51;16.60;68.30
39045;DHT22;52192;52.002;5.956;2023-05-21T04:48:17;16.70;68.30
39045;DHT22;52192;52.002;5.956;2023-05-21T04:50:43;16.70;68.50
39045;DHT22;52192;52.002;5.956;2023-05-21T04:53:08;16.70;68.50
39045;DHT22;52192;52.002;5.956;2023-05-21T04:55:34;16.70;68.50
39045;DHT22;52192;52.002;5.956;2023-05-21T04:58:05;16.70;68.60
39045;DHT22;52192;52.002;5.956;2023-05-21T05:00:32;16.70;68.60
39045;DHT22;52192;52.002;5.956;2023-05-21T05:02:58;16.70;68.70
39045;DHT22;52192;52.002;5.956;2023-05-21T05:05:24;16.70;68.90
39045;DHT22;52192;52.002;5.956;2023-05-21T05:07:49;16.70;68.90
39045;DHT22;52192;52.002;5.956;2023-05-21T05:10:15;16.70;69.00
39045;DHT22;52192;52.002;5.956;2023-05-21T05:12:41;16.70;69.10
39045;DHT22;52192;52.002;5.956;2023-05-21T05:15:07;16.70;69.10
39045;DHT22;52192;52.002;5.956;2023-05-21T05:17:33;16.70;69.20
39045;DHT22;52192;52.002;5.956;2023-05-21T05:20:00;16.70;69.10
39045;DHT22;52192;52.002;5.956;2023-05-21T05:22:25;16.80;69.10
39045;DHT22;52192;52.002;5.956;2023-05-21T05:24:51;16.80;69.10
39045;DHT22;52192;52.002;5.956;2023-05-21T05:27:17;16.80;69.00
39045;DHT22;52192;52.002;5.956;2023-05-21T05:29:43;16.80;68.90
39045;DHT22;52192;52.002;5.956;2023-05-21T05:32:09;16.80;69.10
39045;DHT22;52192;52.002;5.956;2023-05-21T05:34:36;16.90;69.20
39045;DHT22;52192;52.002;5.956;2023-05-21T05:37:02;16.90;69.20
39045;DHT22;52192;52.002;5.956;2023-05-21T05:39:28;16.90;69.50
39045;DHT22;52192;52.002;5.956;2023-05-21T05:41:54;16.90;70.00
39045;DHT22;52192;52.002;5.956;2023-05-21T05:44:20;16.90;69.50
39045;DHT22;52192;52.002;5.956;2023-05-21T05:46:45;16.90;69.40
39045;DHT22;52192;52.002;5.956;2023-05-21T05:49:11;17.00;69.50
39045;DHT22;52192;52.002;5.956;2023-05-21T05:51:38;17.00;69.70
39045;DHT22;52192;52.002;5.956;2023-05-21T05:54:03;17.00;69.80
39045;DHT22;52192;52.002;5.956;2023-05-21T05:56:29;17.00;69.90
39045;DHT22;52192;52.002;5.956;2023-05-21T05:58:55;17.00;69.70
39045;DHT22;52192;52.002;5.956;2023-05-21T06:01:21;17.10;69.80
39045;DHT22;52192;52.002;5.956;2023-05-21T06:03:49;17.10;69.80
39045;DHT22;52192;52.002;5.956;2023-05-21T06:06:15;17.10;69.90
39045;DHT22;52192;52.002;5.956;2023-05-21T06:08:41;17.10;70.00
39045;DHT22;52192;52.002;5.956;2023-05-21T06:11:07;17.20;70.10
39045;DHT22;52192;52.002;5.956;2023-05-21T06:13:34;17.20;70.00
39045;DHT22;52192;52.002;5.956;2023-05-21T06:16:00;17.20;69.90
39045;DHT22;52192;52.002;5.956;2023-05-21T06:18:25;17.30;70.00
39045;DHT22;52192;52.002;5.956;2023-05-21T06:20:51;17.30;69.80
39045;DHT22;52192;52.002;5.956;2023-05-21T06:23:17;17.40;69.90
39045;DHT22;52192;52.002;5.956;2023-05-21T06:25:42;17.40;69.90
39045;DHT22;52192;52.002;5.956;2023-05-21T06:28:08;17.40;69.80
39045;DHT22;52192;52.002;5.956;2023-05-21T06:30:34;17.50;69.60
39045;DHT22;52192;52.002;5.956;2023-05-21T06:33:00;17.60;69.50
39045;DHT22;52192;52.002;5.956;2023-05-21T06:35:25;17.70;69.30
39045;DHT22;52192;52.002;5.956;2023-05-21T06:37:51;17.80;69.10
39045;DHT22;52192;52.002;5.956;2023-05-21T06:40:17;17.80;68.90
39045;DHT22;52192;52.002;5.956;2023-05-21T06:42:42;17.90;69.00
39045;DHT22;52192;52.002;5.956;2023-05-21T06:45:08;18.00;68.80
39045;DHT22;52192;52.002;5.956;2023-05-21T06:47:34;18.10;68.80
39045;DHT22;52192;52.002;5.956;2023-05-21T06:50:00;18.10;68.60
39045;DHT22;52192;52.002;5.956;2023-05-21T06:52:25;18.20;68.50
39045;DHT22;52192;52.002;5.956;2023-05-21T06:54:51;18.30;68.50
39045;DHT22;52192;52.002;5.956;2023-05-21T06:57:17;18.50;68.20
39045;DHT22;52192;52.002;5.956;2023-05-21T06:59:43;18.60;67.90
39045;DHT22;52192;52.002;5.956;2023-05-21T07:02:08;18.70;67.70
39045;DHT22;52192;52.002;5.956;2023-05-21T07:04:34;18.80;67.60
39045;DHT22;52192;52.002;5.956;2023-05-21T07:07:01;18.90;67.40
39045;DHT22;52192;52.002;5.956;2023-05-21T07:09:29;19.00;67.20
39045;DHT22;52192;52.002;5.956;2023-05-21T07:11:54;19.10;67.20
39045;DHT22;52192;52.002;5.956;2023-05-21T07:14:20;19.20;66.90
39045;DHT22;52192;52.002;5.956;2023-05-21T07:16:46;19.30;66.70
39045;DHT22;52192;52.002;5.956;2023-05-21T07:19:12;19.40;66.60
39045;DHT22;52192;52.002;5.956;2023-05-21T07:21:38;19.50;66.40
39045;DHT22;52192;52.002;5.956;2023-05-21T07:24:04;19.60;66.30
39045;DHT22;52192;52.002;5.956;2023-05-21T07:26:30;19.60;66.10
39045;DHT22;52192;52.002;5.956;2023-05-21T07:28:55;19.70;65.90
39045;DHT22;52192;52.002;5.956;2023-05-21T07:31:21;19.80;65.90
39045;DHT22;52192;52.002;5.956;2023-05-21T07:33:47;19.80;65.90
39045;DHT22;52192;52.002;5.956;2023-05-21T07:36:12;19.70;65.80
39045;DHT22;52192;52.002;5.956;2023-05-21T07:38:38;19.70;65.80
39045;DHT22;52192;52.002;5.956;2023-05-21T07:41:04;19.80;65.80
39045;DHT22;52192;52.002;5.956;2023-05-21T07:43:30;19.80;66.30
39045;DHT22;52192;52.002;5.956;2023-05-21T07:45:56;19.90;65.50
39045;DHT22;52192;52.002;5.956;2023-05-21T07:48:21;19.90;65.40
39045;DHT22;52192;52.002;5.956;2023-05-21T07:50:48;19.90;65.40
39045;DHT22;52192;52.002;5.956;2023-05-21T07:53:14;19.90;65.40
39045;DHT22;52192;52.002;5.956;2023-05-21T07:55:40;19.90;65.30
39045;DHT22;52192;52.002;5.956;2023-05-21T07:58:14;20.00;65.90
39045;DHT22;52192;52.002;5.956;2023-05-21T08:00:43;20.00;65.20
39045;DHT22;52192;52.002;5.956;2023-05-21T08:03:12;20.00;65.30
39045;DHT22;52192;52.002;5.956;2023-05-21T08:05:38;20.00;65.20
39045;DHT22;52192;52.002;5.956;2023-05-21T08:08:04;20.10;65.10
39045;DHT22;52192;52.002;5.956;2023-05-21T08:10:30;20.20;65.00
39045;DHT22;52192;52.002;5.956;2023-05-21T08:12:56;20.20;64.90
39045;DHT22;52192;52.002;5.956;2023-05-21T08:15:22;20.30;64.90
39045;DHT22;52192;52.002;5.956;2023-05-21T08:17:47;20.40;64.70
39045;DHT22;52192;52.002;5.956;2023-05-21T08:20:14;20.40;64.60
39045;DHT22;52192;52.002;5.956;2023-05-21T08:22:40;20.50;64.60
39045;DHT22;52192;52.002;5.956;2023-05-21T08:25:06;20.60;64.50
39045;DHT22;52192;52.002;5.956;2023-05-21T08:27:32;20.70;64.20
39045;DHT22;52192;52.002;5.956;2023-05-21T08:29:58;20.80;64.00
39045;DHT22;52192;52.002;5.956;2023-05-21T08:32:24;21.00;63.90
39045;DHT22;52192;52.002;5.956;2023-05-21T08:34:49;21.20;63.80
39045;DHT22;52192;52.002;5.956;2023-05-21T08:37:15;21.30;63.50
39045;DHT22;52192;52.002;5.956;2023-05-21T08:39:42;21.30;63.30
39045;DHT22;52192;52.002;5.956;2023-05-21T08:42:26;21.50;63.20
39045;DHT22;52192;52.002;5.956;2023-05-21T08:44:58;21.60;63.10
39045;DHT22;52192;52.002;5.956;2023-05-21T08:47:25;21.70;62.90
39045;DHT22;52192;52.002;5.956;2023-05-21T08:49:54;21.80;62.70
39045;DHT22;52192;52.002;5.956;2023-05-21T08:52:21;21.80;62.10
39045;DHT22;52192;52.002;5.956;2023-05-21T08:54:48;21.90;62.20
39045;DHT22;52192;52.002;5.956;2023-05-21T08:57:18;22.00;62.00
39045;DHT22;52192;52.002;5.956;2023-05-21T08:59:44;22.00;62.00
39045;DHT22;52192;52.002;5.956;2023-05-21T09:02:12;22.10;61.80
39045;DHT22;52192;52.002;5.956;2023-05-21T09:04:41;22.20;61.70
39045;DHT22;52192;52.002;5.956;2023-05-21T09:07:08;22.20;61.60
39045;DHT22;52192;52.002;5.956;2023-05-21T09:09:44;22.20;61.50
39045;DHT22;52192;52.002;5.956;2023-05-21T09:12:11;22.30;61.50
39045;DHT22;52192;52.002;5.956;2023-05-21T09:14:38;22.30;61.40
39045;DHT22;52192;52.002;5.956;2023-05-21T09:17:04;22.40;61.40
39045;DHT22;52192;52.002;5.956;2023-05-21T09:19:30;22.40;61.30
39045;DHT22;52192;52.002;5.956;2023-05-21T09:22:05;22.40;61.30
39045;DHT22;52192;52.002;5.956;2023-05-21T09:24:31;22.50;61.30
39045;DHT22;52192;52.002;5.956;2023-05-21T09:26:57;22.60;61.20
39045;DHT22;52192;52.002;5.956;2023-05-21T09:29:26;22.60;61.00
39045;DHT22;52192;52.002;5.956;2023-05-21T09:31:51;22.70;60.90
39045;DHT22;52192;52.002;5.956;2023-05-21T09:34:19;22.80;60.90
39045;DHT22;52192;52.002;5.956;2023-05-21T09:36:47;22.90;60.70
39045;DHT22;52192;52.002;5.956;2023-05-21T09:39:27;23.10;60.40
39045;DHT22;52192;52.002;5.956;2023-05-21T09:41:56;23.20;60.30
39045;DHT22;52192;52.002;5.956;2023-05-21T09:44:22;23.30;60.00
39045;DHT22;52192;52.002;5.956;2023-05-21T09:46:48;23.50;59.90
39045;DHT22;52192;52.002;5.956;2023-05-21T09:49:23;23.50;59.60
39045;DHT22;52192;52.002;5.956;2023-05-21T09:51:54;23.50;59.40
39045;DHT22;52192;52.002;5.956;2023-05-21T09:54:22;23.60;59.40
39045;DHT22;52192;52.002;5.956;2023-05-21T09:56:50;23.70;59.30
39045;DHT22;52192;52.002;5.956;2023-05-21T09:59:17;23.80;59.20
39045;DHT22;52192;52.002;5.956;2023-05-21T10:01:43;24.00;58.90
39045;DHT22;52192;52.002;5.956;2023-05-21T10:04:10;24.10;58.20
39045;DHT22;52192;52.002;5.956;2023-05-21T10:06:41;24.20;58.10
39045;DHT22;52192;52.002;5.956;2023-05-21T10:09:09;24.30;58.00
39045;DHT22;52192;52.002;5.956;2023-05-21T10:11:36;24.30;58.00
39045;DHT22;52192;52.002;5.956;2023-05-21T10:14:16;24.40;58.00
39045;DHT22;52192;52.002;5.956;2023-05-21T10:16:43;24.40;57.70
39045;DHT22;52192;52.002;5.956;2023-05-21T10:19:09;24.40;57.60
39045;DHT22;52192;52.002;5.956;2023-05-21T10:21:35;24.40;57.50
39045;DHT22;52192;52.002;5.956;2023-05-21T10:24:02;24.40;57.20
39045;DHT22;52192;52.002;5.956;2023-05-21T10:26:29;24.40;57.40
39045;DHT22;52192;52.002;5.956;2023-05-21T10:28:56;24.50;57.50
39045;DHT22;52192;52.002;5.956;2023-05-21T10:31:25;24.60;57.40
39045;DHT22;52192;52.002;5.956;2023-05-21T10:33:53;24.70;57.40
39045;DHT22;52192;52.002;5.956;2023-05-21T10:36:23;24.90;57.10
39045;DHT22;52192;52.002;5.956;2023-05-21T10:38:50;25.00;56.50
39045;DHT22;52192;52.002;5.956;2023-05-21T10:41:17;25.10;56.60
39045;DHT22;52192;52.002;5.956;2023-05-21T10:46:55;25.30;55.80
39045;DHT22;52192;52.002;5.956;2023-05-21T10:52:42;25.40;56.00
39045;DHT22;52192;52.002;5.956;2023-05-21T11:00:53;25.60;55.60
39045;DHT22;52192;52.002;5.956;2023-05-21T11:03:20;25.70;55.70
39045;DHT22;52192;52.002;5.956;2023-05-21T11:05:55;25.90;55.70
39045;DHT22;52192;52.002;5.956;2023-05-21T11:08:22;25.90;55.50
39045;DHT22;52192;52.002;5.956;2023-05-21T11:10:56;25.90;55.30
39045;DHT22;52192;52.002;5.956;2023-05-21T11:13:43;25.90;55.40
39045;DHT22;52192;52.002;5.956;2023-05-21T11:16:13;26.10;55.40
39045;DHT22;52192;52.002;5.956;2023-05-21T11:18:55;26.20;54.60
39045;DHT22;52192;52.002;5.956;2023-05-21T11:21:21;26.30;54.80
39045;DHT22;52192;52.002;5.956;2023-05-21T11:24:09;26.40;54.70
39045;DHT22;52192;52.002;5.956;2023-05-21T11:29:16;26.70;54.50
39045;DHT22;52192;52.002;5.956;2023-05-21T11:31:46;26.90;54.40
39045;DHT22;52192;52.002;5.956;2023-05-21T11:34:24;27.00;54.20
39045;DHT22;52192;52.002;5.956;2023-05-21T11:39:40;26.90;53.70
39045;DHT22;52192;52.002;5.956;2023-05-21T11:42:06;27.00;53.80
39045;DHT22;52192;52.002;5.956;2023-05-21T11:44:38;27.10;53.30
39045;DHT22;52192;52.002;5.956;2023-05-21T11:47:05;27.10;53.40
39045;DHT22;52192;52.002;5.956;2023-05-21T11:49:31;27.20;53.30
39045;DHT22;52192;52.002;5.956;2023-05-21T11:52:01;27.20;53.30
39045;DHT22;52192;52.002;5.956;2023-05-21T11:54:27;27.30;53.10
39045;DHT22;52192;52.002;5.956;2023-05-21T11:57:11;27.30;53.10
39045;DHT22;52192;52.002;5.956;2023-05-21T11:59:39;27.30;52.80
39045;DHT22;52192;52.002;5.956;2023-05-21T12:02:05;27.40;52.90
39045;DHT22;52192;52.002;5.956;2023-05-21T12:04:33;27.40;52.80
39045;DHT22;52192;52.002;5.956;2023-05-21T12:07:05;27.60;52.70
39045;DHT22;52192;52.002;5.956;2023-05-21T12:09:42;27.60;52.50
39045;DHT22;52192;52.002;5.956;2023-05-21T12:12:09;27.70;52.50
39045;DHT22;52192;52.002;5.956;2023-05-21T12:14:35;27.80;52.40
39045;DHT22;52192;52.002;5.956;2023-05-21T12:17:05;27.90;51.80
39045;DHT22;52192;52.002;5.956;2023-05-21T12:19:36;27.90;51.70
39045;DHT22;52192;52.002;5.956;2023-05-21T12:22:10;27.90;51.80
39045;DHT22;52192;52.002;5.956;2023-05-21T12:24:37;27.90;51.60
39045;DHT22;52192;52.002;5.956;2023-05-21T12:27:05;27.90;51.80
39045;DHT22;52192;52.002;5.956;2023-05-21T12:29:41;28.00;51.90
39045;DHT22;52192;52.002;5.956;2023-05-21T12:32:12;28.20;51.90
39045;DHT22;52192;52.002;5.956;2023-05-21T12:34:49;28.30;51.40
39045;DHT22;52192;52.002;5.956;2023-05-21T12:37:18;28.30;51.20
39045;DHT22;52192;52.002;5.956;2023-05-21T12:39:46;28.30;50.90
39045;DHT22;52192;52.002;5.956;2023-05-21T12:42:13;28.20;51.30
39045;DHT22;52192;52.002;5.956;2023-05-21T12:44:48;28.30;51.40
39045;DHT22;52192;52.002;5.956;2023-05-21T12:47:14;28.50;51.20
39045;DHT22;52192;52.002;5.956;2023-05-21T12:49:42;28.60;51.00
39045;DHT22;52192;52.002;5.956;2023-05-21T12:52:13;28.70;51.10
39045;DHT22;52192;52.002;5.956;2023-05-21T12:54:44;28.90;50.90
39045;DHT22;52192;52.002;5.956;2023-05-21T12:57:18;28.90;50.30
39045;DHT22;52192;52.002;5.956;2023-05-21T13:00:03;28.90;50.50
39045;DHT22;52192;52.002;5.956;2023-05-21T13:02:39;29.00;50.30
39045;DHT22;52192;52.002;5.956;2023-05-21T13:05:09;29.00;50.30
39045;DHT22;52192;52.002;5.956;2023-05-21T13:07:37;29.10;50.10
39045;DHT22;52192;52.002;5.956;2023-05-21T13:10:03;29.10;49.80
39045;DHT22;52192;52.002;5.956;2023-05-21T13:12:30;29.00;50.00
39045;DHT22;52192;52.002;5.956;2023-05-21T13:14:57;29.00;50.20
39045;DHT22;52192;52.002;5.956;2023-05-21T13:17:24;29.00;50.20
39045;DHT22;52192;52.002;5.956;2023-05-21T13:20:15;28.90;50.00
39045;DHT22;52192;52.002;5.956;2023-05-21T13:22:45;28.90;50.00
39045;DHT22;52192;52.002;5.956;2023-05-21T13:25:12;28.90;50.10
39045;DHT22;52192;52.002;5.956;2023-05-21T13:27:43;29.00;50.10
39045;DHT22;52192;52.002;5.956;2023-05-21T13:30:09;29.10;50.00
39045;DHT22;52192;52.002;5.956;2023-05-21T13:32:39;29.20;50.00
39045;DHT22;52192;52.002;5.956;2023-05-21T13:35:05;29.30;49.90
39045;DHT22;52192;52.002;5.956;2023-05-21T13:37:33;29.40;49.80
39045;DHT22;52192;52.002;5.956;2023-05-21T13:40:03;29.60;49.80
39045;DHT22;52192;52.002;5.956;2023-05-21T13:42:30;29.70;49.70
39045;DHT22;52192;52.002;5.956;2023-05-21T13:44:55;29.70;49.60
39045;DHT22;52192;52.002;5.956;2023-05-21T13:47:21;29.60;48.90
39045;DHT22;52192;52.002;5.956;2023-05-21T13:49:47;29.50;49.30
39045;DHT22;52192;52.002;5.956;2023-05-21T13:52:12;29.40;49.40
39045;DHT22;52192;52.002;5.956;2023-05-21T13:54:39;29.40;49.60
39045;DHT22;52192;52.002;5.956;2023-05-21T13:57:05;29.40;49.60
39045;DHT22;52192;52.002;5.956;2023-05-21T13:59:31;29.40;49.30
39045;DHT22;52192;52.002;5.956;2023-05-21T14:01:56;29.40;49.40
39045;DHT22;52192;52.002;5.956;2023-05-21T14:04:22;29.40;49.50
39045;DHT22;52192;52.002;5.956;2023-05-21T14:06:48;29.50;49.40
39045;DHT22;52192;52.002;5.956;2023-05-21T14:09:14;29.60;49.30
39045;DHT22;52192;52.002;5.956;2023-05-21T14:11:40;29.60;49.00
39045;DHT22;52192;52.002;5.956;2023-05-21T14:14:06;29.60;49.10
39045;DHT22;52192;52.002;5.956;2023-05-21T14:16:32;29.60;48.60
39045;DHT22;52192;52.002;5.956;2023-05-21T14:18:58;29.50;49.00
39045;DHT22;52192;52.002;5.956;2023-05-21T14:21:24;29.60;49.10
39045;DHT22;52192;52.002;5.956;2023-05-21T14:23:50;29.70;49.10
39045;DHT22;52192;52.002;5.956;2023-05-21T14:26:17;29.80;48.70
39045;DHT22;52192;52.002;5.956;2023-05-21T14:28:43;29.80;48.60
39045;DHT22;52192;52.002;5.956;2023-05-21T14:31:10;29.80;48.60
39045;DHT22;52192;52.002;5.956;2023-05-21T14:33:37;29.90;48.80
39045;DHT22;52192;52.002;5.956;2023-05-21T14:36:03;30.00;48.60
39045;DHT22;52192;52.002;5.956;2023-05-21T14:38:29;30.00;48.50
39045;DHT22;52192;52.002;5.956;2023-05-21T14:40:55;29.90;48.50
39045;DHT22;52192;52.002;5.956;2023-05-21T14:43:21;29.70;48.50
39045;DHT22;52192;52.002;5.956;2023-05-21T14:45:47;29.60;49.00
39045;DHT22;52192;52.002;5.956;2023-05-21T14:48:13;29.50;49.00
39045;DHT22;52192;52.002;5.956;2023-05-21T14:50:39;29.60;49.10
39045;DHT22;52192;52.002;5.956;2023-05-21T14:53:06;29.50;49.10
39045;DHT22;52192;52.002;5.956;2023-05-21T14:55:32;29.40;49.30
39045;DHT22;52192;52.002;5.956;2023-05-21T14:57:59;29.50;49.30
39045;DHT22;52192;52.002;5.956;2023-05-21T15:00:25;29.80;49.90
39045;DHT22;52192;52.002;5.956;2023-05-21T15:02:51;29.90;49.00
39045;DHT22;52192;52.002;5.956;2023-05-21T15:05:18;30.10;48.70
39045;DHT22;52192;52.002;5.956;2023-05-21T15:07:44;30.00;48.40
39045;DHT22;52192;52.002;5.956;2023-05-21T15:10:09;29.90;48.50
39045;DHT22;52192;52.002;5.956;2023-05-21T15:12:36;29.90;48.70
39045;DHT22;52192;52.002;5.956;2023-05-21T15:15:02;30.00;48.50
39045;DHT22;52192;52.002;5.956;2023-05-21T15:17:28;30.00;48.20
39045;DHT22;52192;52.002;5.956;2023-05-21T15:19:54;30.00;48.40
39045;DHT22;52192;52.002;5.956;2023-05-21T15:22:20;30.10;48.20
39045;DHT22;52192;52.002;5.956;2023-05-21T15:24:46;30.10;48.00
39045;DHT22;52192;52.002;5.956;2023-05-21T15:27:11;30.10;48.20
39045;DHT22;52192;52.002;5.956;2023-05-21T15:29:37;30.00;48.30
39045;DHT22;52192;52.002;5.956;2023-05-21T15:32:03;30.00;48.40
39045;DHT22;52192;52.002;5.956;2023-05-21T15:34:32;30.10;48.30
39045;DHT22;52192;52.002;5.956;2023-05-21T15:36:57;30.10;48.30
39045;DHT22;52192;52.002;5.956;2023-05-21T15:39:23;30.10;48.10
39045;DHT22;52192;52.002;5.956;2023-05-21T15:41:49;30.00;47.90
39045;DHT22;52192;52.002;5.956;2023-05-21T15:44:14;30.00;48.20
39045;DHT22;52192;52.002;5.956;2023-05-21T15:46:40;30.00;48.30
39045;DHT22;52192;52.002;5.956;2023-05-21T15:49:06;30.00;48.30
39045;DHT22;52192;52.002;5.956;2023-05-21T15:51:32;30.00;48.20